createdAt,value
2018-01-30T00:01:40.564Z,1.70
2018-01-30T00:04:08.011Z,1.50
2018-01-30T00:06:35.465Z,1.60
2018-01-30T00:09:02.936Z,1.50
2018-01-30T00:11:30.389Z,1.60
2018-01-30T00:13:57.854Z,2.17
2018-01-30T00:16:25.341Z,1.60
2018-01-30T00:18:52.799Z,1.63
2018-01-30T00:21:20.263Z,1.90
2018-01-30T00:23:48.470Z,1.80
2018-01-30T00:26:15.938Z,1.80
2018-01-30T00:28:43.377Z,1.50
2018-01-30T00:31:10.846Z,1.90
2018-01-30T00:33:38.290Z,2.30
2018-01-30T00:36:05.753Z,2.00
2018-01-30T00:38:33.197Z,1.50
2018-01-30T00:41:00.662Z,1.70
2018-01-30T00:43:28.142Z,2.17
2018-01-30T00:45:55.581Z,2.00
2018-01-30T00:48:23.046Z,1.93
2018-01-30T00:50:50.492Z,1.70
2018-01-30T00:53:17.972Z,1.70
2018-01-30T00:55:45.424Z,1.50
2018-01-30T00:58:12.885Z,1.60
2018-01-30T01:03:14.114Z,1.63
2018-01-30T01:05:41.558Z,1.70
2018-01-30T01:08:09.020Z,1.77
2018-01-30T01:10:36.458Z,1.67
2018-01-30T01:13:03.904Z,1.20
2018-01-30T01:15:31.349Z,1.70
2018-01-30T01:17:58.809Z,1.50
2018-01-30T01:20:27.045Z,1.87
2018-01-30T01:22:54.541Z,1.93
2018-01-30T01:25:21.995Z,1.70
2018-01-30T01:27:49.451Z,1.90
2018-01-30T01:30:17.678Z,2.00
2018-01-30T01:32:45.134Z,1.70
2018-01-30T01:35:12.589Z,1.70
2018-01-30T01:37:40.045Z,1.43
2018-01-30T01:40:07.489Z,1.67
2018-01-30T01:42:34.940Z,1.77
2018-01-30T01:45:02.403Z,1.90
2018-01-30T01:47:29.857Z,1.50
2018-01-30T01:49:57.419Z,1.87
2018-01-30T01:52:24.894Z,1.50
2018-01-30T01:54:52.348Z,1.60
2018-01-30T01:57:20.565Z,1.70
2018-01-30T01:59:48.022Z,1.87
2018-01-30T02:02:15.505Z,1.27
2018-01-30T02:04:43.730Z,2.20
2018-01-30T02:07:11.965Z,1.53
2018-01-30T02:09:40.182Z,1.40
2018-01-30T02:12:07.633Z,1.77
2018-01-30T02:14:35.088Z,1.60
2018-01-30T02:17:02.549Z,1.50
2018-01-30T02:19:30.004Z,2.10
2018-01-30T02:21:57.462Z,1.93
2018-01-30T02:24:24.921Z,1.53
2018-01-30T02:26:52.374Z,1.73
2018-01-30T02:29:19.865Z,1.70
2018-01-30T02:31:47.305Z,1.30
2018-01-30T02:34:14.774Z,1.50
2018-01-30T02:36:42.231Z,1.70
2018-01-30T02:39:09.690Z,1.40
2018-01-30T02:41:37.133Z,1.93
2018-01-30T02:44:04.598Z,1.60
2018-01-30T02:46:32.045Z,1.87
2018-01-30T02:48:59.506Z,1.70
2018-01-30T02:51:26.954Z,1.50
2018-01-30T02:53:54.442Z,1.40
2018-01-30T02:56:21.905Z,1.63
2018-01-30T02:58:49.366Z,1.50
2018-01-30T03:01:17.592Z,1.80
2018-01-30T03:03:45.047Z,1.57
2018-01-30T03:06:12.501Z,1.60
2018-01-30T03:08:39.951Z,1.80
2018-01-30T03:11:07.411Z,1.33
2018-01-30T03:13:34.863Z,1.70
2018-01-30T03:16:02.330Z,2.03
2018-01-30T03:18:29.781Z,1.30
2018-01-30T03:20:57.229Z,2.13
2018-01-30T03:23:24.677Z,1.60
2018-01-30T03:25:52.925Z,1.37
2018-01-30T03:28:20.385Z,1.80
2018-01-30T03:30:47.850Z,1.87
2018-01-30T03:33:16.066Z,1.50
2018-01-30T03:35:43.521Z,1.20
2018-01-30T03:38:10.970Z,1.53
2018-01-30T03:40:38.434Z,1.50
2018-01-30T03:43:05.878Z,1.50
2018-01-30T03:45:33.329Z,1.50
2018-01-30T03:48:00.790Z,1.60
2018-01-30T03:50:28.249Z,1.40
2018-01-30T03:52:56.474Z,1.77
2018-01-30T03:55:23.926Z,1.40
2018-01-30T03:57:51.381Z,1.53
2018-01-30T04:00:18.839Z,1.50
2018-01-30T04:02:46.297Z,1.10
2018-01-30T04:05:13.741Z,1.40
2018-01-30T04:07:41.211Z,1.97
2018-01-30T04:10:08.652Z,1.40
2018-01-30T04:12:36.101Z,1.10
2018-01-30T04:15:03.549Z,1.27
2018-01-30T04:17:31.001Z,1.27
2018-01-30T04:19:58.449Z,1.30
2018-01-30T04:22:25.909Z,1.60
2018-01-30T04:24:53.353Z,1.70
2018-01-30T04:27:21.576Z,1.30
2018-01-30T04:29:49.025Z,1.70
2018-01-30T04:32:16.491Z,1.90
2018-01-30T04:34:43.947Z,1.50
2018-01-30T04:37:11.394Z,1.57
2018-01-30T04:39:38.844Z,1.33
2018-01-30T04:42:06.301Z,1.43
2018-01-30T04:44:33.755Z,1.17
2018-01-30T04:47:01.211Z,1.57
2018-01-30T04:49:28.672Z,1.63
2018-01-30T04:51:56.121Z,1.30
2018-01-30T04:54:23.570Z,1.50
2018-01-30T04:56:51.026Z,1.33
2018-01-30T04:59:18.480Z,1.60
2018-01-30T05:01:46.700Z,1.60
2018-01-30T05:04:14.152Z,1.47
2018-01-30T05:06:41.592Z,1.23
2018-01-30T05:09:09.053Z,1.73
2018-01-30T05:11:36.509Z,1.50
2018-01-30T05:14:03.966Z,1.40
2018-01-30T05:16:31.414Z,1.47
2018-01-30T05:18:58.882Z,1.67
2018-01-30T05:21:26.344Z,1.40
2018-01-30T05:23:53.797Z,1.33
2018-01-30T05:26:21.236Z,1.43
2018-01-30T05:28:48.690Z,1.50
2018-01-30T05:31:16.141Z,1.40
2018-01-30T05:33:43.601Z,1.27
2018-01-30T05:36:11.069Z,1.80
2018-01-30T05:38:38.524Z,1.40
2018-01-30T05:41:05.977Z,1.70
2018-01-30T05:43:33.448Z,1.90
2018-01-30T05:46:00.889Z,1.30
2018-01-30T05:48:28.345Z,1.30
2018-01-30T05:50:55.797Z,1.10
2018-01-30T05:53:24.010Z,1.20
2018-01-30T05:55:51.476Z,1.37
2018-01-30T05:58:18.935Z,1.60
2018-01-30T06:00:46.387Z,1.10
2018-01-30T06:03:13.832Z,1.40
2018-01-30T06:05:41.298Z,1.60
2018-01-30T06:08:08.743Z,1.43
2018-01-30T06:10:36.208Z,1.20
2018-01-30T06:13:03.654Z,1.50
2018-01-30T06:15:31.128Z,1.50
2018-01-30T06:17:58.584Z,1.50
2018-01-30T06:20:26.036Z,1.63
2018-01-30T06:22:53.496Z,1.60
2018-01-30T06:25:20.954Z,1.60
2018-01-30T06:27:48.414Z,1.80
2018-01-30T06:30:15.874Z,1.60
2018-01-30T06:32:43.326Z,1.40
2018-01-30T06:35:10.786Z,1.43
2018-01-30T06:37:38.236Z,1.23
2018-01-30T06:40:05.691Z,2.00
2018-01-30T06:42:33.146Z,1.20
2018-01-30T06:45:00.610Z,1.10
2018-01-30T06:47:28.062Z,1.27
2018-01-30T06:49:55.518Z,1.40
2018-01-30T06:52:22.985Z,1.70
2018-01-30T06:54:50.460Z,1.20
2018-01-30T06:57:17.902Z,1.10
2018-01-30T06:59:45.345Z,1.87
2018-01-30T07:02:13.573Z,1.37
2018-01-30T07:04:41.016Z,1.50
2018-01-30T07:07:09.238Z,1.23
2018-01-30T07:09:36.689Z,1.63
2018-01-30T07:12:04.177Z,1.13
2018-01-30T07:14:31.624Z,1.50
2018-01-30T07:16:59.082Z,1.30
2018-01-30T07:19:26.547Z,1.30
2018-01-30T07:21:54.001Z,1.43
2018-01-30T07:24:21.466Z,1.50
2018-01-30T07:26:48.934Z,1.20
2018-01-30T07:29:16.390Z,1.27
2018-01-30T07:31:43.851Z,1.43
2018-01-30T07:34:11.297Z,1.27
2018-01-30T07:36:38.752Z,1.30
2018-01-30T07:39:06.209Z,1.37
2018-01-30T07:41:34.433Z,1.27
2018-01-30T07:44:02.658Z,1.40
2018-01-30T07:46:30.108Z,1.57
2018-01-30T07:48:57.565Z,1.10
2018-01-30T07:51:25.029Z,1.70
2018-01-30T07:53:52.488Z,1.30
2018-01-30T07:56:19.940Z,1.30
2018-01-30T07:58:47.397Z,1.70
2018-01-30T08:01:14.861Z,1.63
2018-01-30T08:03:42.326Z,1.20
2018-01-30T08:06:09.764Z,1.40
2018-01-30T08:08:37.238Z,1.40
2018-01-30T08:11:04.726Z,1.50
2018-01-30T08:13:32.862Z,1.40
2018-01-30T08:16:00.297Z,1.10
2018-01-30T08:18:27.757Z,1.07
2018-01-30T08:20:55.523Z,1.90
2018-01-30T08:23:22.986Z,2.63
2018-01-30T08:25:50.442Z,1.30
2018-01-30T08:28:17.910Z,1.10
2018-01-30T08:30:45.357Z,1.60
2018-01-30T08:33:13.585Z,1.50
2018-01-30T08:35:41.048Z,1.40
2018-01-30T08:38:08.502Z,1.77
2018-01-30T08:40:35.970Z,1.10
2018-01-30T08:43:04.198Z,1.47
2018-01-30T08:45:31.647Z,1.60
2018-01-30T08:47:59.101Z,1.60
2018-01-30T08:50:26.557Z,1.50
2018-01-30T08:52:54.017Z,1.80
2018-01-30T08:55:21.473Z,1.37
2018-01-30T08:57:48.930Z,1.53
2018-01-30T09:00:16.381Z,1.80
2018-01-30T09:02:43.838Z,1.60
2018-01-30T09:05:11.293Z,1.73
2018-01-30T09:07:38.762Z,1.47
2018-01-30T09:10:06.254Z,1.40
2018-01-30T09:12:33.700Z,1.60
2018-01-30T09:15:01.158Z,1.60
2018-01-30T09:17:29.374Z,1.57
2018-01-30T09:19:57.597Z,1.60
2018-01-30T09:22:25.836Z,1.90
2018-01-30T09:24:53.288Z,1.43
2018-01-30T09:27:20.745Z,1.67
2018-01-30T09:29:48.205Z,1.63
2018-01-30T09:32:15.650Z,1.40
2018-01-30T09:34:43.114Z,1.60
2018-01-30T09:37:11.327Z,1.60
2018-01-30T09:39:38.786Z,1.57
2018-01-30T09:42:06.237Z,2.10
2018-01-30T09:44:33.693Z,1.27
2018-01-30T09:47:01.153Z,1.63
2018-01-30T09:49:28.642Z,1.60
2018-01-30T09:51:56.086Z,1.60
2018-01-30T09:54:23.540Z,1.57
2018-01-30T09:56:51.051Z,2.60
2018-01-30T09:59:19.269Z,1.70
2018-01-30T10:01:46.713Z,1.47
2018-01-30T10:04:14.171Z,2.00
2018-01-30T10:06:41.631Z,1.40
2018-01-30T10:09:09.096Z,1.80
2018-01-30T10:11:36.549Z,1.40
2018-01-30T10:14:03.997Z,1.50
2018-01-30T10:16:31.470Z,1.80
2018-01-30T10:18:58.922Z,1.50
2018-01-30T10:21:26.373Z,1.50
2018-01-30T10:23:53.834Z,1.50
2018-01-30T10:26:21.297Z,1.50
2018-01-30T10:28:48.745Z,1.70
2018-01-30T10:31:16.193Z,1.67
2018-01-30T10:33:43.649Z,1.87
2018-01-30T10:36:11.106Z,1.70
2018-01-30T10:38:38.574Z,1.60
2018-01-30T10:41:06.035Z,1.90
2018-01-30T10:43:33.477Z,1.50
2018-01-30T10:46:00.937Z,1.80
2018-01-30T10:48:28.405Z,1.40
2018-01-30T10:50:55.870Z,1.27
2018-01-30T10:53:23.314Z,1.93
2018-01-30T10:55:50.769Z,1.77
2018-01-30T10:58:18.221Z,1.80
2018-01-30T11:00:45.676Z,1.70
2018-01-30T11:03:13.134Z,1.43
2018-01-30T11:05:40.593Z,1.50
2018-01-30T11:08:08.056Z,1.87
2018-01-30T11:10:35.497Z,1.77
2018-01-30T11:13:02.977Z,1.60
2018-01-30T11:15:30.396Z,1.70
2018-01-30T11:17:58.626Z,1.70
2018-01-30T11:20:26.077Z,1.40
2018-01-30T11:22:53.538Z,1.90
2018-01-30T11:25:21.015Z,1.80
2018-01-30T11:27:48.466Z,1.60
2018-01-30T11:30:15.913Z,1.53
2018-01-30T11:32:43.366Z,1.73
2018-01-30T11:35:10.816Z,1.97
2018-01-30T11:37:38.268Z,1.83
2018-01-30T11:40:05.734Z,1.60
2018-01-30T11:42:33.301Z,1.50
2018-01-30T11:45:00.761Z,1.30
2018-01-30T11:47:28.209Z,1.77
2018-01-30T11:49:55.667Z,1.80
2018-01-30T11:52:23.120Z,1.63
2018-01-30T11:54:50.570Z,2.00
2018-01-30T11:57:18.021Z,1.70
2018-01-30T11:59:45.477Z,2.00
2018-01-30T12:02:12.943Z,1.80
2018-01-30T12:04:40.395Z,1.60
2018-01-30T12:07:07.857Z,1.60
2018-01-30T12:09:35.309Z,1.70
2018-01-30T12:12:02.757Z,1.67
2018-01-30T12:14:30.218Z,1.57
2018-01-30T12:16:57.674Z,1.73
2018-01-30T12:19:25.130Z,1.90
2018-01-30T12:21:52.582Z,1.50
2018-01-30T12:24:20.033Z,1.87
2018-01-30T12:26:47.481Z,1.53
2018-01-30T12:29:14.933Z,1.43
2018-01-30T12:31:43.148Z,2.37
2018-01-30T12:34:10.593Z,1.87
2018-01-30T12:36:38.048Z,1.70
2018-01-30T12:39:05.511Z,1.47
2018-01-30T12:41:32.960Z,1.43
2018-01-30T12:44:00.420Z,1.50
2018-01-30T12:46:27.879Z,1.57
2018-01-30T12:48:55.334Z,2.20
2018-01-30T12:51:22.776Z,1.50
2018-01-30T12:53:50.224Z,2.03
2018-01-30T12:56:17.677Z,1.50
2018-01-30T12:58:45.906Z,1.53
2018-01-30T13:01:13.366Z,1.70
2018-01-30T13:03:40.825Z,1.67
2018-01-30T13:06:08.279Z,1.47
2018-01-30T13:08:35.733Z,1.60
2018-01-30T13:11:03.193Z,1.80
2018-01-30T13:13:30.665Z,1.60
2018-01-30T13:15:58.118Z,1.87
2018-01-30T13:18:25.560Z,1.80
2018-01-30T13:20:53.786Z,1.30
2018-01-30T13:23:21.998Z,1.43
2018-01-30T13:25:49.465Z,1.60
2018-01-30T13:28:16.910Z,1.90
2018-01-30T13:30:44.373Z,1.60
2018-01-30T13:33:11.822Z,1.90
2018-01-30T13:35:39.328Z,1.87
2018-01-30T13:38:06.777Z,1.77
2018-01-30T13:40:34.229Z,2.23
2018-01-30T13:43:01.681Z,1.53
2018-01-30T13:45:29.144Z,1.83
2018-01-30T13:47:56.587Z,1.80
2018-01-30T13:50:24.038Z,1.63
2018-01-30T13:52:51.493Z,1.70
2018-01-30T13:55:19.775Z,1.30
2018-01-30T13:57:47.229Z,1.77
2018-01-30T14:00:14.695Z,2.00
2018-01-30T14:02:42.132Z,1.70
2018-01-30T14:05:09.607Z,1.63
2018-01-30T14:07:37.127Z,1.43
2018-01-30T14:10:04.577Z,1.60
2018-01-30T14:12:32.788Z,1.60
2018-01-30T14:15:00.825Z,1.90
2018-01-30T14:17:28.269Z,1.83
2018-01-30T14:19:56.503Z,1.80
2018-01-30T14:22:23.962Z,1.97
2018-01-30T14:24:51.417Z,1.37
2018-01-30T14:27:18.884Z,1.60
2018-01-30T14:29:46.329Z,1.37
2018-01-30T14:32:13.789Z,1.50
2018-01-30T14:34:41.250Z,1.40
2018-01-30T14:37:08.712Z,1.63
2018-01-30T14:39:36.197Z,1.83
2018-01-30T14:42:04.427Z,1.97
2018-01-30T14:44:31.871Z,1.80
2018-01-30T14:46:59.342Z,2.10
2018-01-30T14:49:26.806Z,1.67
2018-01-30T14:51:55.052Z,1.50
2018-01-30T14:54:22.506Z,1.90
2018-01-30T14:56:49.973Z,1.60
2018-01-30T14:59:17.417Z,1.90
2018-01-30T15:01:44.878Z,1.77
2018-01-30T15:04:12.321Z,1.60
2018-01-30T15:06:39.774Z,1.70
2018-01-30T15:09:07.988Z,1.60
2018-01-30T15:11:35.442Z,1.47
2018-01-30T15:14:02.907Z,1.43
2018-01-30T15:16:31.113Z,1.63
2018-01-30T15:18:58.575Z,1.77
2018-01-30T15:21:26.032Z,1.63
2018-01-30T15:23:54.254Z,1.27
2018-01-30T15:26:21.707Z,1.80
2018-01-30T15:28:49.163Z,2.00
2018-01-30T15:31:16.606Z,2.07
2018-01-30T15:33:44.089Z,1.30
2018-01-30T15:36:11.549Z,1.80
2018-01-30T15:38:39.002Z,1.70
2018-01-30T15:41:06.463Z,2.10
2018-01-30T15:43:33.914Z,1.97
2018-01-30T15:46:01.364Z,1.90
2018-01-30T15:48:28.831Z,1.83
2018-01-30T15:50:56.293Z,1.30
2018-01-30T15:53:23.750Z,1.90
2018-01-30T15:55:51.201Z,1.50
2018-01-30T15:58:18.662Z,1.60
2018-01-30T16:00:46.114Z,2.13
2018-01-30T16:03:13.574Z,2.50
2018-01-30T16:05:41.036Z,2.50
2018-01-30T16:08:08.506Z,2.70
2018-01-30T16:10:35.958Z,3.07
2018-01-30T16:13:03.430Z,3.63
2018-01-30T16:15:30.886Z,4.00
2018-01-30T16:17:58.346Z,3.80
2018-01-30T16:20:25.812Z,3.30
2018-01-30T16:22:53.284Z,3.40
2018-01-30T16:25:20.754Z,4.27
2018-01-30T16:27:48.969Z,4.43
2018-01-30T16:30:16.421Z,5.90
2018-01-30T16:32:43.871Z,5.30
2018-01-30T16:35:12.113Z,5.53
2018-01-30T16:37:39.570Z,5.50
2018-01-30T16:40:07.030Z,5.87
2018-01-30T16:42:35.265Z,5.40
2018-01-30T16:45:02.710Z,5.57
2018-01-30T16:47:30.162Z,4.80
2018-01-30T16:49:58.400Z,4.70
2018-01-30T16:52:26.629Z,6.17
2018-01-30T16:54:54.866Z,5.47
2018-01-30T16:57:22.312Z,5.67
2018-01-30T16:59:50.533Z,5.43
2018-01-30T17:02:18.005Z,5.50
2018-01-30T17:04:46.241Z,4.90
2018-01-30T17:07:13.695Z,4.33
2018-01-30T17:09:41.905Z,5.17
2018-01-30T17:12:09.368Z,4.63
2018-01-30T17:14:36.815Z,4.33
2018-01-30T17:17:04.269Z,5.03
2018-01-30T17:19:31.722Z,4.03
2018-01-30T17:21:59.178Z,5.00
2018-01-30T17:24:26.637Z,4.60
2018-01-30T17:26:54.113Z,5.00
2018-01-30T17:29:21.565Z,4.73
2018-01-30T17:31:49.017Z,5.57
2018-01-30T17:34:16.541Z,5.53
2018-01-30T17:36:43.997Z,6.13
2018-01-30T17:39:11.451Z,5.80
2018-01-30T17:41:39.664Z,6.33
2018-01-30T17:44:07.885Z,6.40
2018-01-30T17:46:36.137Z,6.90
2018-01-30T17:49:03.598Z,6.57
2018-01-30T17:51:31.054Z,7.27
2018-01-30T17:53:59.374Z,7.70
2018-01-30T17:56:26.817Z,7.53
2018-01-30T17:58:55.045Z,7.53
2018-01-30T18:01:22.551Z,7.67
2018-01-30T18:03:50.003Z,7.30
2018-01-30T18:06:17.460Z,7.60
2018-01-30T18:08:45.681Z,7.70
2018-01-30T18:11:13.915Z,7.33
2018-01-30T18:13:42.151Z,7.17
2018-01-30T18:16:09.605Z,9.37
2018-01-30T18:18:37.060Z,8.33
2018-01-30T18:21:04.505Z,9.17
2018-01-30T18:23:31.965Z,8.40
2018-01-30T18:25:59.410Z,10.10
2018-01-30T18:28:26.877Z,9.33
2018-01-30T18:30:55.102Z,10.07
2018-01-30T18:33:23.327Z,9.63
2018-01-30T18:35:50.782Z,10.47
2018-01-30T18:38:18.289Z,9.60
2018-01-30T18:40:46.517Z,10.00
2018-01-30T18:43:13.994Z,10.70
2018-01-30T18:45:41.454Z,9.27
2018-01-30T18:48:08.973Z,9.57
2018-01-30T18:50:36.384Z,9.90
2018-01-30T18:53:03.845Z,9.83
2018-01-30T18:55:31.297Z,10.57
2018-01-30T18:57:58.751Z,10.03
2018-01-30T19:00:26.218Z,10.63
2018-01-30T19:02:53.708Z,10.50
2018-01-30T19:05:21.176Z,11.23
2018-01-30T19:07:48.621Z,10.80
2018-01-30T19:10:16.093Z,11.30
2018-01-30T19:12:43.548Z,9.80
2018-01-30T19:15:11.026Z,10.53
2018-01-30T19:17:38.488Z,11.00
2018-01-30T19:20:05.948Z,10.80
2018-01-30T19:22:33.443Z,10.80
2018-01-30T19:25:00.902Z,11.47
2018-01-30T19:27:29.130Z,10.47
2018-01-30T19:29:56.612Z,11.40
2018-01-30T19:32:24.075Z,11.00
2018-01-30T19:34:51.533Z,11.27
2018-01-30T19:37:18.995Z,11.27
2018-01-30T19:39:46.454Z,11.63
2018-01-30T19:42:13.912Z,10.90
2018-01-30T19:44:41.381Z,11.20
2018-01-30T19:47:09.607Z,10.53
2018-01-30T19:49:37.064Z,10.87
2018-01-30T19:52:04.522Z,11.30
2018-01-30T19:54:31.973Z,12.40
2018-01-30T19:56:59.443Z,11.43
2018-01-30T19:59:26.895Z,11.80
2018-01-30T20:01:54.357Z,11.97
2018-01-30T20:04:21.815Z,10.80
2018-01-30T20:06:49.288Z,11.30
2018-01-30T20:09:16.735Z,11.93
2018-01-30T20:11:44.196Z,11.20
2018-01-30T20:14:11.662Z,10.67
2018-01-30T20:16:39.157Z,11.40
2018-01-30T20:19:07.394Z,11.30
2018-01-30T20:21:34.845Z,10.83
2018-01-30T20:24:02.300Z,11.10
2018-01-30T20:26:35.455Z,11.47
2018-01-30T20:29:02.915Z,10.80
2018-01-30T20:31:30.378Z,10.67
2018-01-30T20:33:57.839Z,11.27
2018-01-30T20:36:25.312Z,10.17
2018-01-30T20:38:52.776Z,9.90
2018-01-30T20:41:20.225Z,9.93
2018-01-30T20:43:47.689Z,11.07
2018-01-30T20:46:15.145Z,10.67
2018-01-30T20:48:42.625Z,10.83
2018-01-30T20:51:10.079Z,10.50
2018-01-30T20:53:37.534Z,10.37
2018-01-30T20:56:04.989Z,9.80
2018-01-30T20:58:33.214Z,9.77
2018-01-30T21:01:00.664Z,11.17
2018-01-30T21:03:28.138Z,10.63
2018-01-30T21:05:55.606Z,9.90
2018-01-30T21:08:23.107Z,10.53
2018-01-30T21:10:50.578Z,10.70
2018-01-30T21:13:18.813Z,11.10
2018-01-30T21:15:46.460Z,15.23
2018-01-30T21:18:13.946Z,15.33
2018-01-30T21:20:41.420Z,15.90
2018-01-30T21:23:09.650Z,16.87
2018-01-30T21:25:37.111Z,16.53
2018-01-30T21:28:04.591Z,15.17
2018-01-30T21:30:32.046Z,16.50
2018-01-30T21:32:59.520Z,16.60
2018-01-30T21:35:26.990Z,15.43
2018-01-30T21:37:55.227Z,16.20
2018-01-30T21:40:22.695Z,15.60
2018-01-30T21:42:50.146Z,15.63
2018-01-30T21:45:17.602Z,15.47
2018-01-30T21:47:45.058Z,15.77
2018-01-30T21:50:12.529Z,14.73
2018-01-30T21:52:39.974Z,14.20
2018-01-30T21:55:07.458Z,14.30
2018-01-30T21:57:34.919Z,12.57
2018-01-30T22:00:02.393Z,12.57
2018-01-30T22:02:30.621Z,12.20
2018-01-30T22:04:58.097Z,12.90
2018-01-30T22:07:25.558Z,11.10
2018-01-30T22:09:53.017Z,11.43
2018-01-30T22:12:20.473Z,11.93
2018-01-30T22:14:47.951Z,11.00
2018-01-30T22:17:16.175Z,10.30
2018-01-30T22:19:43.631Z,11.13
2018-01-30T22:22:11.085Z,10.90
2018-01-30T22:24:38.587Z,9.83
2018-01-30T22:27:06.018Z,10.60
2018-01-30T22:29:33.496Z,10.20
2018-01-30T22:32:00.948Z,9.77
2018-01-30T22:34:28.404Z,9.93
2018-01-30T22:36:55.863Z,10.50
2018-01-30T22:39:23.313Z,10.20
2018-01-30T22:41:50.783Z,10.23
2018-01-30T22:44:29.865Z,9.90
2018-01-30T22:46:45.687Z,9.40
